KEGE/EGE METAR and TAF weather

Enter ICAO airport designator
Station Type Date Time Source
KEGE METAR 2018/01/16 08:56 UTC NOAA

KEGE 160856Z AUTO 00000KT 10SM CLR M11/M14 A3045 RMK AO2 SLP367 T11111139 51006 FZRANO


Station Type Date Time Source
KEGE Decoded METAR 2018/01/16 08:56 UTC NOAA

Eagle County Regional, CO, United States (KEGE) 39-39N 106-55W
Jan 16, 2018 - 03:56 AM EST / 2018.01.16 0856 UTC
Wind: Calm:0
Visibility: 10 mile(s):0
Sky conditions: clear
Temperature: 12.0 F (-11.1 C)
Dew Point: 7.0 F (-13.9 C)
Relative Humidity: 79%
Pressure (altimeter): 30.45 in. Hg (1031 hPa)
Pressure tendency: 0.02 inches (0.6 hPa) higher than three hours ago
ob: KEGE 160856Z AUTO 00000KT 10SM CLR M11/M14 A3045 RMK AO2 SLP367 T11111139 51006 FZRANO
cycle: 9

Station Type Date Time Source
KEGE TAF 2018/01/16 06:39 UTC NOAA

TAF KEGE 160536Z 1606/1706 14003KT P6SM SKC
AMD LTD TO CLD VIS AND WIND TIL 161400


Example: see airport list